sensor_id;sensor_type;location;lat;lon;timestamp;temperature;humidity
3268;DHT22;1646;52.450;13.326;2023-04-25T00:00:08;9.90;99.90
3268;DHT22;1646;52.450;13.326;2023-04-25T00:05:09;9.80;99.90
3268;DHT22;1646;52.450;13.326;2023-04-25T00:10:10;9.90;99.90
3268;DHT22;1646;52.450;13.326;2023-04-25T00:15:09;9.80;99.90
3268;DHT22;1646;52.450;13.326;2023-04-25T00:20:09;9.80;99.90
3268;DHT22;1646;52.450;13.326;2023-04-25T00:25:08;9.80;99.90
3268;DHT22;1646;52.450;13.326;2023-04-25T00:30:08;9.70;99.90
3268;DHT22;1646;52.450;13.326;2023-04-25T00:35:08;9.70;99.90
3268;DHT22;1646;52.450;13.326;2023-04-25T00:40:07;9.70;99.90
3268;DHT22;1646;52.450;13.326;2023-04-25T00:45:09;9.70;99.90
3268;DHT22;1646;52.450;13.326;2023-04-25T00:50:10;9.80;99.90
3268;DHT22;1646;52.450;13.326;2023-04-25T00:55:10;9.70;99.90
3268;DHT22;1646;52.450;13.326;2023-04-25T01:00:10;9.90;99.90
3268;DHT22;1646;52.450;13.326;2023-04-25T01:05:10;9.80;99.90
3268;DHT22;1646;52.450;13.326;2023-04-25T01:10:09;9.80;99.90
3268;DHT22;1646;52.450;13.326;2023-04-25T01:15:07;9.80;99.90
3268;DHT22;1646;52.450;13.326;2023-04-25T01:20:08;9.80;99.90
3268;DHT22;1646;52.450;13.326;2023-04-25T01:25:09;9.70;99.90
3268;DHT22;1646;52.450;13.326;2023-04-25T01:30:08;9.70;99.90
3268;DHT22;1646;52.450;13.326;2023-04-25T01:35:10;9.70;99.90
3268;DHT22;1646;52.450;13.326;2023-04-25T01:40:11;9.60;99.90
3268;DHT22;1646;52.450;13.326;2023-04-25T01:45:10;9.70;99.90
3268;DHT22;1646;52.450;13.326;2023-04-25T01:50:10;9.70;99.90
3268;DHT22;1646;52.450;13.326;2023-04-25T01:55:10;9.60;99.90
3268;DHT22;1646;52.450;13.326;2023-04-25T02:00:18;9.60;99.90
3268;DHT22;1646;52.450;13.326;2023-04-25T02:05:18;9.60;99.90
3268;DHT22;1646;52.450;13.326;2023-04-25T02:10:18;9.60;99.90
3268;DHT22;1646;52.450;13.326;2023-04-25T02:15:33;9.70;99.90
3268;DHT22;1646;52.450;13.326;2023-04-25T02:20:43;9.70;99.90
3268;DHT22;1646;52.450;13.326;2023-04-25T02:25:43;9.70;99.90
3268;DHT22;1646;52.450;13.326;2023-04-25T02:30:42;9.70;99.90
3268;DHT22;1646;52.450;13.326;2023-04-25T02:35:40;9.70;99.90
3268;DHT22;1646;52.450;13.326;2023-04-25T02:40:38;9.70;99.90
3268;DHT22;1646;52.450;13.326;2023-04-25T02:45:37;9.60;99.90
3268;DHT22;1646;52.450;13.326;2023-04-25T02:50:35;9.60;99.90
3268;DHT22;1646;52.450;13.326;2023-04-25T02:55:34;9.70;99.90
3268;DHT22;1646;52.450;13.326;2023-04-25T03:00:33;9.60;99.90
3268;DHT22;1646;52.450;13.326;2023-04-25T03:05:33;9.50;99.90
3268;DHT22;1646;52.450;13.326;2023-04-25T03:10:31;9.50;99.90
3268;DHT22;1646;52.450;13.326;2023-04-25T03:15:34;9.40;99.90
3268;DHT22;1646;52.450;13.326;2023-04-25T03:20:34;9.40;99.90
3268;DHT22;1646;52.450;13.326;2023-04-25T03:25:33;9.40;99.90
3268;DHT22;1646;52.450;13.326;2023-04-25T03:30:33;9.40;99.90
3268;DHT22;1646;52.450;13.326;2023-04-25T03:35:34;9.30;99.90
3268;DHT22;1646;52.450;13.326;2023-04-25T03:40:32;9.40;99.90
3268;DHT22;1646;52.450;13.326;2023-04-25T03:46:08;9.50;99.90
3268;DHT22;1646;52.450;13.326;2023-04-25T03:51:09;9.50;99.90
3268;DHT22;1646;52.450;13.326;2023-04-25T03:56:12;9.40;99.90
3268;DHT22;1646;52.450;13.326;2023-04-25T04:01:10;9.30;99.90
3268;DHT22;1646;52.450;13.326;2023-04-25T04:06:11;9.40;99.90
3268;DHT22;1646;52.450;13.326;2023-04-25T04:11:12;9.50;99.90
3268;DHT22;1646;52.450;13.326;2023-04-25T04:16:11;9.30;99.90
3268;DHT22;1646;52.450;13.326;2023-04-25T04:21:11;9.40;99.90
3268;DHT22;1646;52.450;13.326;2023-04-25T04:26:11;9.40;99.90
3268;DHT22;1646;52.450;13.326;2023-04-25T04:31:25;9.50;99.90
3268;DHT22;1646;52.450;13.326;2023-04-25T04:36:25;9.40;99.90
3268;DHT22;1646;52.450;13.326;2023-04-25T04:41:24;9.30;99.90
3268;DHT22;1646;52.450;13.326;2023-04-25T04:46:38;9.40;99.90
3268;DHT22;1646;52.450;13.326;2023-04-25T04:52:03;9.40;99.90
3268;DHT22;1646;52.450;13.326;2023-04-25T04:57:13;9.70;99.90
3268;DHT22;1646;52.450;13.326;2023-04-25T05:02:31;9.80;99.90
3268;DHT22;1646;52.450;13.326;2023-04-25T05:07:42;9.70;99.90
3268;DHT22;1646;52.450;13.326;2023-04-25T05:13:04;9.50;99.90
3268;DHT22;1646;52.450;13.326;2023-04-25T05:18:32;9.40;99.90
3268;DHT22;1646;52.450;13.326;2023-04-25T05:23:38;9.30;99.90
3268;DHT22;1646;52.450;13.326;2023-04-25T05:29:00;9.50;99.90
3268;DHT22;1646;52.450;13.326;2023-04-25T05:34:27;9.40;99.90
3268;DHT22;1646;52.450;13.326;2023-04-25T05:39:30;9.50;99.90
3268;DHT22;1646;52.450;13.326;2023-04-25T05:44:44;9.70;99.90
3268;DHT22;1646;52.450;13.326;2023-04-25T05:49:53;9.60;99.90
3268;DHT22;1646;52.450;13.326;2023-04-25T05:55:19;9.70;99.90
3268;DHT22;1646;52.450;13.326;2023-04-25T06:00:17;9.80;99.90
3268;DHT22;1646;52.450;13.326;2023-04-25T06:05:18;9.80;99.90
3268;DHT22;1646;52.450;13.326;2023-04-25T06:10:18;9.80;99.90
3268;DHT22;1646;52.450;13.326;2023-04-25T06:15:17;9.60;99.90
3268;DHT22;1646;52.450;13.326;2023-04-25T06:20:18;9.60;99.90
3268;DHT22;1646;52.450;13.326;2023-04-25T06:25:22;9.60;99.90
3268;DHT22;1646;52.450;13.326;2023-04-25T06:30:20;9.60;99.90
3268;DHT22;1646;52.450;13.326;2023-04-25T06:35:28;9.60;99.90
3268;DHT22;1646;52.450;13.326;2023-04-25T06:40:28;9.60;99.90
3268;DHT22;1646;52.450;13.326;2023-04-25T06:45:27;9.80;99.90
3268;DHT22;1646;52.450;13.326;2023-04-25T06:50:25;9.90;99.90
3268;DHT22;1646;52.450;13.326;2023-04-25T06:55:23;9.90;99.90
3268;DHT22;1646;52.450;13.326;2023-04-25T07:00:37;9.90;99.90
3268;DHT22;1646;52.450;13.326;2023-04-25T07:05:36;9.80;99.90
3268;DHT22;1646;52.450;13.326;2023-04-25T07:10:34;9.60;99.90
3268;DHT22;1646;52.450;13.326;2023-04-25T07:15:33;9.70;99.90
3268;DHT22;1646;52.450;13.326;2023-04-25T07:20:33;9.50;99.90
3268;DHT22;1646;52.450;13.326;2023-04-25T07:25:32;9.50;99.90
3268;DHT22;1646;52.450;13.326;2023-04-25T07:30:32;9.60;99.90
3268;DHT22;1646;52.450;13.326;2023-04-25T07:35:34;9.50;99.90
3268;DHT22;1646;52.450;13.326;2023-04-25T07:40:33;9.40;99.90
3268;DHT22;1646;52.450;13.326;2023-04-25T07:45:36;9.50;99.90
3268;DHT22;1646;52.450;13.326;2023-04-25T07:50:36;9.60;99.90
3268;DHT22;1646;52.450;13.326;2023-04-25T07:55:34;9.50;99.90
3268;DHT22;1646;52.450;13.326;2023-04-25T08:00:41;9.50;99.90
3268;DHT22;1646;52.450;13.326;2023-04-25T08:05:56;9.60;99.90
3268;DHT22;1646;52.450;13.326;2023-04-25T08:10:57;9.60;99.90
3268;DHT22;1646;52.450;13.326;2023-04-25T08:15:56;9.80;99.90
3268;DHT22;1646;52.450;13.326;2023-04-25T08:20:56;10.00;99.90
3268;DHT22;1646;52.450;13.326;2023-04-25T08:25:54;9.80;99.90
3268;DHT22;1646;52.450;13.326;2023-04-25T08:30:57;10.20;99.90
3268;DHT22;1646;52.450;13.326;2023-04-25T08:36:04;10.60;99.90
3268;DHT22;1646;52.450;13.326;2023-04-25T08:41:03;11.00;99.90
3268;DHT22;1646;52.450;13.326;2023-04-25T08:46:02;11.10;99.90
3268;DHT22;1646;52.450;13.326;2023-04-25T08:51:17;10.40;99.90
3268;DHT22;1646;52.450;13.326;2023-04-25T08:56:19;10.20;99.90
3268;DHT22;1646;52.450;13.326;2023-04-25T09:01:20;10.50;99.90
3268;DHT22;1646;52.450;13.326;2023-04-25T09:06:24;11.30;99.90
3268;DHT22;1646;52.450;13.326;2023-04-25T09:11:23;12.30;99.90
3268;DHT22;1646;52.450;13.326;2023-04-25T09:16:22;13.30;99.90
3268;DHT22;1646;52.450;13.326;2023-04-25T09:21:42;14.10;99.90
3268;DHT22;1646;52.450;13.326;2023-04-25T09:26:43;14.00;99.90
3268;DHT22;1646;52.450;13.326;2023-04-25T09:31:42;14.50;99.90
3268;DHT22;1646;52.450;13.326;2023-04-25T09:36:42;14.20;99.90
3268;DHT22;1646;52.450;13.326;2023-04-25T09:41:54;14.80;99.90
3268;DHT22;1646;52.450;13.326;2023-04-25T09:46:52;15.80;98.40
3268;DHT22;1646;52.450;13.326;2023-04-25T09:51:56;15.00;97.60
3268;DHT22;1646;52.450;13.326;2023-04-25T09:57:05;14.20;99.30
3268;DHT22;1646;52.450;13.326;2023-04-25T10:02:08;13.80;97.90
3268;DHT22;1646;52.450;13.326;2023-04-25T10:07:10;12.70;99.10
3268;DHT22;1646;52.450;13.326;2023-04-25T10:12:14;12.30;98.90
3268;DHT22;1646;52.450;13.326;2023-04-25T10:17:12;12.00;99.50
3268;DHT22;1646;52.450;13.326;2023-04-25T10:22:18;11.80;98.10
3268;DHT22;1646;52.450;13.326;2023-04-25T10:27:18;11.50;98.60
3268;DHT22;1646;52.450;13.326;2023-04-25T10:32:16;11.40;98.40
3268;DHT22;1646;52.450;13.326;2023-04-25T10:37:16;11.60;99.20
3268;DHT22;1646;52.450;13.326;2023-04-25T10:42:17;11.90;98.00
3268;DHT22;1646;52.450;13.326;2023-04-25T10:47:34;12.00;99.00
3268;DHT22;1646;52.450;13.326;2023-04-25T10:52:34;12.20;99.80
3268;DHT22;1646;52.450;13.326;2023-04-25T10:57:36;12.20;98.90
3268;DHT22;1646;52.450;13.326;2023-04-25T11:02:41;11.90;98.90
3268;DHT22;1646;52.450;13.326;2023-04-25T11:07:47;11.90;99.40
3268;DHT22;1646;52.450;13.326;2023-04-25T11:13:04;12.10;97.80
3268;DHT22;1646;52.450;13.326;2023-04-25T11:18:02;11.80;97.30
3268;DHT22;1646;52.450;13.326;2023-04-25T11:23:02;11.40;98.30
3268;DHT22;1646;52.450;13.326;2023-04-25T11:28:05;11.40;98.20
3268;DHT22;1646;52.450;13.326;2023-04-25T11:33:03;11.20;98.30
3268;DHT22;1646;52.450;13.326;2023-04-25T11:38:04;11.10;98.20
3268;DHT22;1646;52.450;13.326;2023-04-25T11:43:03;11.00;96.90
3268;DHT22;1646;52.450;13.326;2023-04-25T11:48:02;10.90;96.50
3268;DHT22;1646;52.450;13.326;2023-04-25T11:53:00;11.10;95.70
3268;DHT22;1646;52.450;13.326;2023-04-25T11:58:00;11.00;94.10
3268;DHT22;1646;52.450;13.326;2023-04-25T12:02:59;10.90;94.80
3268;DHT22;1646;52.450;13.326;2023-04-25T12:08:10;11.00;95.00
3268;DHT22;1646;52.450;13.326;2023-04-25T12:13:20;11.10;95.80
3268;DHT22;1646;52.450;13.326;2023-04-25T12:18:19;11.30;96.00
3268;DHT22;1646;52.450;13.326;2023-04-25T12:23:25;11.20;95.80
3268;DHT22;1646;52.450;13.326;2023-04-25T12:28:25;11.40;96.10
3268;DHT22;1646;52.450;13.326;2023-04-25T12:33:25;11.50;94.80
3268;DHT22;1646;52.450;13.326;2023-04-25T12:38:25;11.40;95.20
3268;DHT22;1646;52.450;13.326;2023-04-25T12:43:24;11.70;95.10
3268;DHT22;1646;52.450;13.326;2023-04-25T12:48:23;12.20;94.30
3268;DHT22;1646;52.450;13.326;2023-04-25T12:53:22;12.30;94.90
3268;DHT22;1646;52.450;13.326;2023-04-25T12:58:21;11.90;93.90
3268;DHT22;1646;52.450;13.326;2023-04-25T13:03:21;11.50;94.00
3268;DHT22;1646;52.450;13.326;2023-04-25T13:08:20;11.40;94.90
3268;DHT22;1646;52.450;13.326;2023-04-25T13:13:18;11.50;93.50
3268;DHT22;1646;52.450;13.326;2023-04-25T13:18:17;11.40;93.20
3268;DHT22;1646;52.450;13.326;2023-04-25T13:23:17;11.70;94.50
3268;DHT22;1646;52.450;13.326;2023-04-25T13:28:15;12.20;93.00
3268;DHT22;1646;52.450;13.326;2023-04-25T13:33:13;12.50;93.40
3268;DHT22;1646;52.450;13.326;2023-04-25T13:38:11;12.30;92.40
3268;DHT22;1646;52.450;13.326;2023-04-25T13:43:10;11.90;93.50
3268;DHT22;1646;52.450;13.326;2023-04-25T13:48:08;11.80;92.90
3268;DHT22;1646;52.450;13.326;2023-04-25T13:53:06;11.80;94.30
3268;DHT22;1646;52.450;13.326;2023-04-25T13:58:04;12.00;94.20
3268;DHT22;1646;52.450;13.326;2023-04-25T14:03:06;12.30;94.60
3268;DHT22;1646;52.450;13.326;2023-04-25T14:08:06;12.10;94.10
3268;DHT22;1646;52.450;13.326;2023-04-25T14:13:05;11.70;94.20
3268;DHT22;1646;52.450;13.326;2023-04-25T14:18:07;11.30;94.30
3268;DHT22;1646;52.450;13.326;2023-04-25T14:23:06;10.90;94.70
3268;DHT22;1646;52.450;13.326;2023-04-25T14:28:04;10.70;94.50
3268;DHT22;1646;52.450;13.326;2023-04-25T14:33:02;10.50;94.50
3268;DHT22;1646;52.450;13.326;2023-04-25T14:38:01;10.60;94.80
3268;DHT22;1646;52.450;13.326;2023-04-25T14:42:59;10.50;94.80
3268;DHT22;1646;52.450;13.326;2023-04-25T14:47:57;10.60;95.30
3268;DHT22;1646;52.450;13.326;2023-04-25T14:52:56;10.70;95.20
3268;DHT22;1646;52.450;13.326;2023-04-25T14:57:57;11.00;95.20
3268;DHT22;1646;52.450;13.326;2023-04-25T15:02:55;11.40;95.40
3268;DHT22;1646;52.450;13.326;2023-04-25T15:07:54;11.60;95.40
3268;DHT22;1646;52.450;13.326;2023-04-25T15:12:52;11.40;96.10
3268;DHT22;1646;52.450;13.326;2023-04-25T15:17:52;11.20;96.00
3268;DHT22;1646;52.450;13.326;2023-04-25T15:22:54;11.20;96.60
3268;DHT22;1646;52.450;13.326;2023-04-25T15:27:53;11.10;96.70
3268;DHT22;1646;52.450;13.326;2023-04-25T15:32:53;11.00;96.80
3268;DHT22;1646;52.450;13.326;2023-04-25T15:37:51;11.10;96.40
3268;DHT22;1646;52.450;13.326;2023-04-25T15:42:50;11.20;96.40
3268;DHT22;1646;52.450;13.326;2023-04-25T15:47:49;11.00;96.50
3268;DHT22;1646;52.450;13.326;2023-04-25T15:52:50;11.00;96.30
3268;DHT22;1646;52.450;13.326;2023-04-25T15:57:49;10.90;97.00
3268;DHT22;1646;52.450;13.326;2023-04-25T16:02:47;10.90;97.20
3268;DHT22;1646;52.450;13.326;2023-04-25T16:07:47;10.80;97.00
3268;DHT22;1646;52.450;13.326;2023-04-25T16:12:46;10.70;97.60
3268;DHT22;1646;52.450;13.326;2023-04-25T16:17:45;10.70;97.60
3268;DHT22;1646;52.450;13.326;2023-04-25T16:22:43;10.70;96.50
3268;DHT22;1646;52.450;13.326;2023-04-25T16:27:41;10.60;95.90
3268;DHT22;1646;52.450;13.326;2023-04-25T16:32:41;10.30;96.30
3268;DHT22;1646;52.450;13.326;2023-04-25T16:37:41;10.40;96.90
3268;DHT22;1646;52.450;13.326;2023-04-25T16:42:40;10.20;97.30
3268;DHT22;1646;52.450;13.326;2023-04-25T16:47:38;10.10;98.30
3268;DHT22;1646;52.450;13.326;2023-04-25T16:52:37;10.20;98.70
3268;DHT22;1646;52.450;13.326;2023-04-25T16:57:36;10.20;98.20
3268;DHT22;1646;52.450;13.326;2023-04-25T17:02:34;10.10;98.00
3268;DHT22;1646;52.450;13.326;2023-04-25T17:07:32;10.20;97.50
3268;DHT22;1646;52.450;13.326;2023-04-25T17:12:32;10.50;97.10
3268;DHT22;1646;52.450;13.326;2023-04-25T17:17:30;10.60;96.70
3268;DHT22;1646;52.450;13.326;2023-04-25T17:22:28;10.80;96.50
3268;DHT22;1646;52.450;13.326;2023-04-25T17:27:27;10.80;96.30
3268;DHT22;1646;52.450;13.326;2023-04-25T17:32:27;10.70;96.20
3268;DHT22;1646;52.450;13.326;2023-04-25T17:37:25;10.60;96.60
3268;DHT22;1646;52.450;13.326;2023-04-25T17:42:24;10.50;97.20
3268;DHT22;1646;52.450;13.326;2023-04-25T17:47:22;10.40;97.40
3268;DHT22;1646;52.450;13.326;2023-04-25T17:52:23;10.10;97.80
3268;DHT22;1646;52.450;13.326;2023-04-25T17:57:21;9.80;98.80
3268;DHT22;1646;52.450;13.326;2023-04-25T18:02:20;9.80;99.30
3268;DHT22;1646;52.450;13.326;2023-04-25T18:07:19;9.80;99.80
3268;DHT22;1646;52.450;13.326;2023-04-25T18:12:18;9.70;99.90
3268;DHT22;1646;52.450;13.326;2023-04-25T18:17:17;9.80;99.90
3268;DHT22;1646;52.450;13.326;2023-04-25T18:22:16;10.20;99.90
3268;DHT22;1646;52.450;13.326;2023-04-25T18:27:14;10.20;99.90
3268;DHT22;1646;52.450;13.326;2023-04-25T18:32:14;10.20;99.90
3268;DHT22;1646;52.450;13.326;2023-04-25T18:37:12;9.90;99.90
3268;DHT22;1646;52.450;13.326;2023-04-25T18:42:10;9.50;99.90
3268;DHT22;1646;52.450;13.326;2023-04-25T18:47:09;9.60;99.90
3268;DHT22;1646;52.450;13.326;2023-04-25T18:52:10;9.50;99.90
3268;DHT22;1646;52.450;13.326;2023-04-25T18:57:10;9.50;99.90
3268;DHT22;1646;52.450;13.326;2023-04-25T19:02:10;9.50;99.90
3268;DHT22;1646;52.450;13.326;2023-04-25T19:07:10;9.60;99.90
3268;DHT22;1646;52.450;13.326;2023-04-25T19:12:08;9.50;99.90
3268;DHT22;1646;52.450;13.326;2023-04-25T19:17:07;9.60;99.90
3268;DHT22;1646;52.450;13.326;2023-04-25T19:22:05;9.60;99.90
3268;DHT22;1646;52.450;13.326;2023-04-25T19:27:04;9.60;99.90
3268;DHT22;1646;52.450;13.326;2023-04-25T19:32:02;9.60;99.90
3268;DHT22;1646;52.450;13.326;2023-04-25T19:37:00;9.50;99.90
3268;DHT22;1646;52.450;13.326;2023-04-25T19:41:59;9.40;99.90
3268;DHT22;1646;52.450;13.326;2023-04-25T19:47:00;9.30;99.90
3268;DHT22;1646;52.450;13.326;2023-04-25T19:51:58;9.10;99.90
3268;DHT22;1646;52.450;13.326;2023-04-25T19:56:56;9.10;99.90
3268;DHT22;1646;52.450;13.326;2023-04-25T20:01:54;9.10;99.90
3268;DHT22;1646;52.450;13.326;2023-04-25T20:06:53;9.10;99.90
3268;DHT22;1646;52.450;13.326;2023-04-25T20:11:52;9.00;99.90
3268;DHT22;1646;52.450;13.326;2023-04-25T20:16:50;8.80;99.90
3268;DHT22;1646;52.450;13.326;2023-04-25T20:21:48;8.80;99.90
3268;DHT22;1646;52.450;13.326;2023-04-25T20:26:48;8.70;99.90
3268;DHT22;1646;52.450;13.326;2023-04-25T20:31:46;8.60;99.90
3268;DHT22;1646;52.450;13.326;2023-04-25T20:36:46;8.50;99.90
3268;DHT22;1646;52.450;13.326;2023-04-25T20:41:44;8.50;99.90
3268;DHT22;1646;52.450;13.326;2023-04-25T20:46:44;8.50;99.90
3268;DHT22;1646;52.450;13.326;2023-04-25T20:51:43;8.40;99.90
3268;DHT22;1646;52.450;13.326;2023-04-25T20:56:42;8.30;99.90
3268;DHT22;1646;52.450;13.326;2023-04-25T21:01:40;8.30;99.90
3268;DHT22;1646;52.450;13.326;2023-04-25T21:06:40;8.40;99.90
3268;DHT22;1646;52.450;13.326;2023-04-25T21:11:38;8.50;99.90
3268;DHT22;1646;52.450;13.326;2023-04-25T21:16:36;8.50;99.90
3268;DHT22;1646;52.450;13.326;2023-04-25T21:21:35;8.40;99.90
3268;DHT22;1646;52.450;13.326;2023-04-25T21:26:34;8.30;99.90
3268;DHT22;1646;52.450;13.326;2023-04-25T21:31:33;8.30;99.90
3268;DHT22;1646;52.450;13.326;2023-04-25T21:36:32;8.20;99.90
3268;DHT22;1646;52.450;13.326;2023-04-25T21:41:30;8.10;99.90
3268;DHT22;1646;52.450;13.326;2023-04-25T21:46:30;8.00;99.90
3268;DHT22;1646;52.450;13.326;2023-04-25T21:51:28;8.00;99.90
3268;DHT22;1646;52.450;13.326;2023-04-25T21:56:28;7.90;99.90
3268;DHT22;1646;52.450;13.326;2023-04-25T22:01:26;7.90;99.90
3268;DHT22;1646;52.450;13.326;2023-04-25T22:06:26;7.80;99.90
3268;DHT22;1646;52.450;13.326;2023-04-25T22:11:25;7.70;99.90
3268;DHT22;1646;52.450;13.326;2023-04-25T22:16:24;7.60;99.90
3268;DHT22;1646;52.450;13.326;2023-04-25T22:21:22;7.60;99.90
3268;DHT22;1646;52.450;13.326;2023-04-25T22:26:23;7.50;99.90
3268;DHT22;1646;52.450;13.326;2023-04-25T22:31:21;7.40;99.90
3268;DHT22;1646;52.450;13.326;2023-04-25T22:36:19;7.40;99.90
3268;DHT22;1646;52.450;13.326;2023-04-25T22:41:19;7.30;99.90
3268;DHT22;1646;52.450;13.326;2023-04-25T22:46:20;7.20;99.90
3268;DHT22;1646;52.450;13.326;2023-04-25T22:51:19;7.20;99.90
3268;DHT22;1646;52.450;13.326;2023-04-25T22:56:17;7.10;99.90
3268;DHT22;1646;52.450;13.326;2023-04-25T23:01:15;7.00;99.90
3268;DHT22;1646;52.450;13.326;2023-04-25T23:06:16;6.90;99.90
3268;DHT22;1646;52.450;13.326;2023-04-25T23:11:14;6.80;99.90
3268;DHT22;1646;52.450;13.326;2023-04-25T23:16:12;6.80;99.90
3268;DHT22;1646;52.450;13.326;2023-04-25T23:21:11;6.70;99.90
3268;DHT22;1646;52.450;13.326;2023-04-25T23:26:10;6.60;99.90
3268;DHT22;1646;52.450;13.326;2023-04-25T23:31:09;6.60;99.90
3268;DHT22;1646;52.450;13.326;2023-04-25T23:36:15;6.60;99.90
3268;DHT22;1646;52.450;13.326;2023-04-25T23:41:17;6.50;99.90
3268;DHT22;1646;52.450;13.326;2023-04-25T23:46:15;6.50;99.90
3268;DHT22;1646;52.450;13.326;2023-04-25T23:51:14;6.40;99.90
3268;DHT22;1646;52.450;13.326;2023-04-25T23:56:12;6.30;99.90
